Friday, March 06, 2015
03:56 UTC
  |  Log In   |  Register Free
Airport Search:

Lonesome Pine Airport
(KLNP)

Lonesome Pine Airport Diagram
No Airport Diagram Available

FAA data valid effective March 05, 2015 - April 30, 2015 (unless otherwise noted).

 
 
 
 
 
 
 
 
 
 
 
 
 
 

Current Aviation Weather for Lonesome Pine Airport (KLNP)

The most recent METAR observation for KLNP was updated at: 0317
METAR Summary (Translated METAR)
KLNP
060255Z AUTO 36005KT 4SM -SN OVC008 M08/M09 A3035 RMK AO2
KVJI
060315Z AUTO 35006KT 10SM SCT010 OVC017 M06/M08 A3036 RMK AO2 T10581085
(29.9 nm SE from KLNP)
KTRI
060253Z 33007KT 10SM OVC020 M06/M09 A3042 RMK AO2 SLP305 T10561089 53023
(31.3 nm SE from KLNP)
TAF Summary (Translated TAF)
KTRI
(31.3 nm SE from KLNP)
060218Z 0602/0624 01007KT P6SM SCT025 TEMPO 0602/0604 BKN025 FM060600 VRB03KT P6SM SCT010 BKN020 FM061200 00000KT P6SM SCT015 FM061600 VRB03KT P6SM SKC
  Airport Weather Conditions for KLNP

 Current Weather at LNP
18° F
Light Snow
North winds at 5.8 mph
LNP NOAA Radar

Pressure: 30.35 in
Humidity: 100%
Wind: North at 5.8 MPH (5 KT)
Dew Point: 17.6°F
Visibility: 3.00 mi


Airport Weather Forecast for KLNP

Translated METAR and TAF for KLNP
Translated METAR for KLNP (0355 UTC 06 March 2015)
found at http://aviationweather.gov/adds/metars/
 
METAR text: KLNP 060335Z AUTO 34004KT 2SM -SN OVC008 M08/M09 A3035 RMK AO2
Conditions at: KLNP (WISE/LONESOME PI, VA, US) observed 0335 UTC 06 March 2015
Temperature: -8.0°C (18°F)
Dewpoint: -9.0°C (16°F) [RH = 92%]
Pressure (altimeter): 30.35 inches Hg (1027.9 mb)
Winds: from the NNW (340 degrees) at 5 MPH (4 knots; 2.1 m/s)
Visibility: 2.00 miles (3.22 km)
Ceiling: 800 feet AGL
Clouds: overcast cloud deck at 800 feet AGL
Weather: -SN  (light snow)
Translated TAF for KLNP

There is no translated TAF available for this airport

Find All Airport Services Find A Hotel Find A Rental Car Find A Golf Course Find A Restaurant $100 Hamburger



FBO's on the Field
FBO Company Facility Photos Services Transportation Aviation Fuel Prices: Prices include tax
Catering Weather Repair Courtesy Rental Type 100LL JetA JetA+ MOGAS 8087
 
Lonesome Pine Airport

This FBO has not yet been rated
FS:Shell
Last Updated: Feb-18
Login to update fuel prices
SS:
Contact Lonesome Pine AirportMore FBO Information
 
Add another FBO Facility Photos Catering Weather Repair Courtesy Rental Type 100LL JetA JetA+ MOGAS 8087
Services Transportation Aviation Fuel Prices: Prices include tax


model-print
model-print
model-print
model-print